createdAt,value
2018-05-12T00:00:49.721Z,0.00
2018-05-12T00:01:49.701Z,0.00
2018-05-12T00:02:49.671Z,0.00
2018-05-12T00:03:49.650Z,0.00
2018-05-12T00:04:49.627Z,0.00
2018-05-12T00:05:49.619Z,0.00
2018-05-12T00:06:49.580Z,0.00
2018-05-12T00:07:49.551Z,0.00
2018-05-12T00:08:49.527Z,0.00
2018-05-12T00:09:49.505Z,0.00
2018-05-12T00:10:49.478Z,0.00
2018-05-12T00:11:49.453Z,0.00
2018-05-12T00:12:49.427Z,0.00
2018-05-12T00:13:49.411Z,0.00
2018-05-12T00:14:49.388Z,0.00
2018-05-12T00:15:49.357Z,0.00
2018-05-12T00:16:49.334Z,0.00
2018-05-12T00:17:49.306Z,0.00
2018-05-12T00:18:49.286Z,0.00
2018-05-12T00:19:49.259Z,0.00
2018-05-12T00:20:49.239Z,0.00
2018-05-12T00:21:49.207Z,0.00
2018-05-12T00:22:49.194Z,0.00
2018-05-12T00:23:49.158Z,0.00
2018-05-12T00:24:49.144Z,0.00
2018-05-12T00:25:49.120Z,0.00
2018-05-12T00:26:49.092Z,0.00
2018-05-12T00:27:49.072Z,0.00
2018-05-12T00:28:49.046Z,0.00
2018-05-12T00:29:49.013Z,0.00
2018-05-12T00:30:48.991Z,0.00
2018-05-12T00:31:48.970Z,0.00
2018-05-12T00:32:48.944Z,0.00
2018-05-12T00:33:48.922Z,0.00
2018-05-12T00:34:48.892Z,0.00
2018-05-12T00:35:48.885Z,0.00
2018-05-12T00:36:48.841Z,0.00
2018-05-12T00:37:48.836Z,0.00
2018-05-12T00:38:48.799Z,0.00
2018-05-12T00:39:48.776Z,0.00
2018-05-12T00:40:48.757Z,0.00
2018-05-12T00:41:48.720Z,0.00
2018-05-12T00:42:48.705Z,0.00
2018-05-12T00:43:48.670Z,0.00
2018-05-12T00:44:48.651Z,0.00
2018-05-12T00:45:48.631Z,0.00
2018-05-12T00:46:48.639Z,0.00
2018-05-12T00:47:48.582Z,0.00
2018-05-12T00:48:48.555Z,0.00
2018-05-12T00:49:48.526Z,0.00
2018-05-12T00:50:48.506Z,0.00
2018-05-12T00:51:48.477Z,0.00
2018-05-12T00:52:48.454Z,0.00
2018-05-12T00:53:48.434Z,0.00
2018-05-12T00:54:48.405Z,0.00
2018-05-12T00:55:48.471Z,0.00
2018-05-12T00:56:48.360Z,0.00
2018-05-12T00:57:48.334Z,0.00
2018-05-12T00:58:48.311Z,0.00
2018-05-12T00:59:48.288Z,0.00
2018-05-12T01:00:48.263Z,0.00
2018-05-12T01:01:48.236Z,0.00
2018-05-12T01:02:48.215Z,0.00
2018-05-12T01:03:48.181Z,0.00
2018-05-12T01:04:48.166Z,0.00
2018-05-12T01:05:48.133Z,0.00
2018-05-12T01:06:48.111Z,0.00
2018-05-12T01:07:48.095Z,0.00
2018-05-12T01:08:48.059Z,0.00
2018-05-12T01:09:48.043Z,0.00
2018-05-12T01:10:48.015Z,0.00
2018-05-12T01:11:47.988Z,0.00
2018-05-12T01:12:47.964Z,0.00
2018-05-12T01:13:47.937Z,0.00
2018-05-12T01:14:47.915Z,0.00
2018-05-12T01:15:47.887Z,0.00
2018-05-12T01:16:47.864Z,0.00
2018-05-12T01:17:47.850Z,0.00
2018-05-12T01:18:47.820Z,0.00
2018-05-12T01:19:47.790Z,0.00
2018-05-12T01:20:47.767Z,0.00
2018-05-12T01:21:47.749Z,0.00
2018-05-12T01:22:47.721Z,0.00
2018-05-12T01:23:47.700Z,0.00
2018-05-12T01:24:47.668Z,0.00
2018-05-12T01:25:47.647Z,0.00
2018-05-12T01:26:47.622Z,0.00
2018-05-12T01:27:47.601Z,0.00
2018-05-12T01:28:47.574Z,0.00
2018-05-12T01:29:47.554Z,0.00
2018-05-12T01:30:47.527Z,0.00
2018-05-12T01:31:47.495Z,0.00
2018-05-12T01:32:47.482Z,0.00
2018-05-12T01:33:47.447Z,0.00
2018-05-12T01:34:47.432Z,0.00
2018-05-12T01:35:47.399Z,0.00
2018-05-12T01:36:47.374Z,0.00
2018-05-12T01:37:47.353Z,0.00
2018-05-12T01:38:47.341Z,0.00
2018-05-12T01:39:47.310Z,0.00
2018-05-12T01:40:47.273Z,0.00
2018-05-12T01:41:47.256Z,0.00
2018-05-12T01:42:47.232Z,0.00
2018-05-12T01:43:47.201Z,0.00
2018-05-12T01:44:47.185Z,0.00
2018-05-12T01:45:47.151Z,0.00
2018-05-12T01:46:47.127Z,0.00
2018-05-12T01:47:47.102Z,0.00
2018-05-12T01:48:47.079Z,0.00
2018-05-12T01:49:47.068Z,0.00
2018-05-12T01:50:47.027Z,0.00
2018-05-12T01:51:47.013Z,0.00
2018-05-12T01:52:46.978Z,0.00
2018-05-12T01:53:46.962Z,0.00
2018-05-12T01:54:46.934Z,0.00
2018-05-12T01:55:46.913Z,0.00
2018-05-12T01:56:46.889Z,0.00
2018-05-12T01:57:46.857Z,0.00
2018-05-12T01:58:46.841Z,0.00
2018-05-12T01:59:46.806Z,0.00
2018-05-12T02:00:46.796Z,0.00
2018-05-12T02:01:46.759Z,0.00
2018-05-12T02:02:46.738Z,0.00
2018-05-12T02:03:46.716Z,0.00
2018-05-12T02:04:46.693Z,0.00
2018-05-12T02:05:46.663Z,0.00
2018-05-12T02:06:46.643Z,0.00
2018-05-12T02:07:46.611Z,0.00
2018-05-12T02:08:46.585Z,0.00
2018-05-12T02:09:46.567Z,0.00
2018-05-12T02:10:46.537Z,0.00
2018-05-12T02:11:46.516Z,0.00
2018-05-12T02:12:46.492Z,0.00
2018-05-12T02:13:46.463Z,0.00
2018-05-12T02:14:46.441Z,0.00
2018-05-12T02:15:46.417Z,0.00
2018-05-12T02:16:46.388Z,0.00
2018-05-12T02:17:46.371Z,0.00
2018-05-12T02:18:46.336Z,0.00
2018-05-12T02:19:46.318Z,0.00
2018-05-12T02:20:46.294Z,0.00
2018-05-12T02:21:46.262Z,0.00
2018-05-12T02:22:46.246Z,0.00
2018-05-12T02:23:46.215Z,0.00
2018-05-12T02:24:46.191Z,0.00
2018-05-12T02:25:46.169Z,0.00
2018-05-12T02:26:46.150Z,0.00
2018-05-12T02:27:46.116Z,0.00
2018-05-12T02:28:46.094Z,0.00
2018-05-12T02:29:46.067Z,0.00
2018-05-12T02:30:46.115Z,0.00
2018-05-12T02:31:46.025Z,0.00
2018-05-12T02:32:45.995Z,0.00
2018-05-12T02:33:45.972Z,0.00
2018-05-12T02:34:45.943Z,0.00
2018-05-12T02:35:45.926Z,0.00
2018-05-12T02:36:45.896Z,0.00
2018-05-12T02:37:45.873Z,0.00
2018-05-12T02:38:45.848Z,0.00
2018-05-12T02:39:45.821Z,0.00
2018-05-12T02:40:45.796Z,0.00
2018-05-12T02:41:45.770Z,0.00
2018-05-12T02:42:45.749Z,0.00
2018-05-12T02:43:45.719Z,0.00
2018-05-12T02:44:45.695Z,0.00
2018-05-12T02:45:45.684Z,0.00
2018-05-12T02:46:45.661Z,0.00
2018-05-12T02:47:45.635Z,0.00
2018-05-12T02:48:45.598Z,0.00
2018-05-12T02:49:45.577Z,0.00
2018-05-12T02:50:45.547Z,0.00
2018-05-12T02:51:45.533Z,0.00
2018-05-12T02:52:45.561Z,0.00
2018-05-12T02:53:45.481Z,0.00
2018-05-12T02:54:45.475Z,0.00
2018-05-12T02:55:45.435Z,0.00
2018-05-12T02:56:45.401Z,0.00
2018-05-12T02:57:45.377Z,0.00
2018-05-12T02:58:45.348Z,0.00
2018-05-12T02:59:45.326Z,0.00
2018-05-12T03:00:45.303Z,0.00
2018-05-12T03:01:45.278Z,0.00
2018-05-12T03:02:45.257Z,0.00
2018-05-12T03:03:45.225Z,0.00
2018-05-12T03:04:45.207Z,0.00
2018-05-12T03:05:45.171Z,0.00
2018-05-12T03:06:45.199Z,0.00
2018-05-12T03:07:45.130Z,0.00
2018-05-12T03:08:45.103Z,0.00
2018-05-12T03:09:45.076Z,0.00
2018-05-12T03:10:45.050Z,0.00
2018-05-12T03:11:45.033Z,4.00
2018-05-12T03:12:45.010Z,4.00
2018-05-12T03:13:44.985Z,4.00
2018-05-12T03:14:44.959Z,0.00
2018-05-12T03:15:44.929Z,4.00
2018-05-12T03:16:44.908Z,4.00
2018-05-12T03:17:46.369Z,4.00
2018-05-12T03:18:44.851Z,4.00
2018-05-12T03:19:44.829Z,4.00
2018-05-12T03:20:44.798Z,8.00
2018-05-12T03:21:44.782Z,8.00
2018-05-12T03:22:44.754Z,8.00
2018-05-12T03:23:44.732Z,12.00
2018-05-12T03:24:44.710Z,12.00
2018-05-12T03:25:44.679Z,12.00
2018-05-12T03:26:44.652Z,16.00
2018-05-12T03:27:44.631Z,16.00
2018-05-12T03:28:44.618Z,20.00
2018-05-12T03:29:44.579Z,24.00
2018-05-12T03:30:44.561Z,24.00
2018-05-12T03:31:44.532Z,28.00
2018-05-12T03:32:44.507Z,32.00
2018-05-12T03:33:44.480Z,36.00
2018-05-12T03:34:44.453Z,40.00
2018-05-12T03:35:44.432Z,48.00
2018-05-12T03:36:44.410Z,52.00
2018-05-12T03:37:44.376Z,60.00
2018-05-12T03:38:44.359Z,64.00
2018-05-12T03:39:44.325Z,76.00
2018-05-12T03:40:44.301Z,84.00
2018-05-12T03:41:44.284Z,92.00
2018-05-12T03:42:44.256Z,100.00
2018-05-12T03:43:44.233Z,108.00
2018-05-12T03:44:44.207Z,116.00
2018-05-12T03:45:44.180Z,124.00
2018-05-12T03:46:44.158Z,136.00
2018-05-12T03:47:44.130Z,144.00
2018-05-12T03:48:44.107Z,156.00
2018-05-12T03:49:44.081Z,168.00
2018-05-12T03:50:44.071Z,180.00
2018-05-12T03:51:44.034Z,192.00
2018-05-12T03:52:44.007Z,208.00
2018-05-12T03:53:43.984Z,228.00
2018-05-12T03:54:43.951Z,244.00
2018-05-12T03:55:43.935Z,264.00
2018-05-12T03:56:43.911Z,276.00
2018-05-12T03:57:43.880Z,300.00
2018-05-12T03:58:43.853Z,316.00
2018-05-12T03:59:43.831Z,332.00
2018-05-12T04:00:43.805Z,356.00
2018-05-12T04:01:43.782Z,372.00
2018-05-12T04:02:43.756Z,396.00
2018-05-12T04:03:43.732Z,420.00
2018-05-12T04:04:43.709Z,440.00
2018-05-12T04:05:43.682Z,464.00
2018-05-12T04:06:43.658Z,488.00
2018-05-12T04:07:43.631Z,508.00
2018-05-12T04:08:43.605Z,532.00
2018-05-12T04:09:43.587Z,552.00
2018-05-12T04:10:43.563Z,576.00
2018-05-12T04:11:43.530Z,600.00
2018-05-12T04:12:43.523Z,620.00
2018-05-12T04:13:43.487Z,644.00
2018-05-12T04:14:43.461Z,664.00
2018-05-12T04:15:43.431Z,680.00
2018-05-12T04:16:43.405Z,704.00
2018-05-12T04:17:43.386Z,724.00
2018-05-12T04:18:43.361Z,744.00
2018-05-12T04:19:43.332Z,764.00
2018-05-12T04:20:43.312Z,788.00
2018-05-12T04:21:43.279Z,804.00
2018-05-12T04:22:43.266Z,828.00
2018-05-12T04:23:43.235Z,852.00
2018-05-12T04:24:43.203Z,876.00
2018-05-12T04:25:43.184Z,896.00
2018-05-12T04:26:43.160Z,920.00
2018-05-12T04:27:43.132Z,940.00
2018-05-12T04:28:43.112Z,960.00
2018-05-12T04:29:43.082Z,976.00
2018-05-12T04:30:43.058Z,992.00
2018-05-12T04:31:43.030Z,1008.00
2018-05-12T04:32:43.010Z,1024.00
2018-05-12T04:33:42.991Z,1028.00
2018-05-12T04:34:42.962Z,1068.00
2018-05-12T04:35:42.929Z,1088.00
2018-05-12T04:36:42.916Z,1112.00
2018-05-12T04:37:42.884Z,1132.00
2018-05-12T04:38:42.856Z,1164.00
2018-05-12T04:39:42.839Z,1188.00
2018-05-12T04:40:42.815Z,1208.00
2018-05-12T04:41:42.786Z,1228.00
2018-05-12T04:42:42.769Z,1244.00
2018-05-12T04:43:42.733Z,1256.00
2018-05-12T04:44:42.707Z,1264.00
2018-05-12T04:45:42.692Z,1276.00
2018-05-12T04:46:42.661Z,1288.00
2018-05-12T04:47:42.636Z,1296.00
2018-05-12T04:48:42.607Z,1300.00
2018-05-12T04:49:42.591Z,1300.00
2018-05-12T04:50:42.555Z,1312.00
2018-05-12T04:51:42.541Z,1324.00
2018-05-12T04:52:42.515Z,1344.00
2018-05-12T04:53:42.485Z,1356.00
2018-05-12T04:54:42.466Z,1364.00
2018-05-12T04:55:42.431Z,1376.00
2018-05-12T04:56:42.415Z,1392.00
2018-05-12T04:57:42.396Z,1404.00
2018-05-12T04:58:42.358Z,1408.00
2018-05-12T04:59:42.334Z,1420.00
2018-05-12T05:00:42.316Z,1432.00
2018-05-12T05:01:42.282Z,1424.00
2018-05-12T05:02:42.270Z,1420.00
2018-05-12T05:03:42.237Z,1424.00
2018-05-12T05:04:42.211Z,1436.00
2018-05-12T05:05:42.193Z,1440.00
2018-05-12T05:06:42.168Z,1448.00
2018-05-12T05:07:42.135Z,1456.00
2018-05-12T05:08:42.112Z,1476.00
2018-05-12T05:09:42.135Z,1500.00
2018-05-12T05:10:42.062Z,1516.00
2018-05-12T05:11:42.036Z,1528.00
2018-05-12T05:12:42.014Z,1540.00
2018-05-12T05:13:41.991Z,1556.00
2018-05-12T05:14:41.960Z,1572.00
2018-05-12T05:15:41.932Z,1592.00
2018-05-12T05:16:41.915Z,1616.00
2018-05-12T05:17:41.895Z,1636.00
2018-05-12T05:18:41.865Z,1664.00
2018-05-12T05:19:41.841Z,1680.00
2018-05-12T05:20:41.810Z,1692.00
2018-05-12T05:21:42.371Z,1704.00
2018-05-12T05:22:42.367Z,1736.00
2018-05-12T05:23:42.403Z,1752.00
2018-05-12T05:24:42.401Z,1748.00
2018-05-12T05:25:42.372Z,1756.00
2018-05-12T05:26:41.686Z,1764.00
2018-05-12T05:27:41.634Z,1772.00
2018-05-12T05:28:41.614Z,1760.00
2018-05-12T05:29:41.589Z,1760.00
2018-05-12T05:30:41.661Z,1760.00
2018-05-12T05:31:41.542Z,1740.00
2018-05-12T05:32:41.517Z,1736.00
2018-05-12T05:33:41.488Z,1712.00
2018-05-12T05:34:41.473Z,1692.00
2018-05-12T05:35:41.438Z,1680.00
2018-05-12T05:36:41.413Z,1676.00
2018-05-12T05:37:41.393Z,1660.00
2018-05-12T05:38:41.371Z,1664.00
2018-05-12T05:39:41.334Z,1656.00
2018-05-12T05:40:41.319Z,1656.00
2018-05-12T05:41:41.458Z,1660.00
2018-05-12T05:42:41.268Z,1656.00
2018-05-12T05:43:41.247Z,1648.00
2018-05-12T05:44:41.272Z,1652.00
2018-05-12T05:45:41.194Z,1652.00
2018-05-12T05:46:41.166Z,1624.00
2018-05-12T05:47:41.140Z,1612.00
2018-05-12T05:48:41.120Z,1616.00
2018-05-12T05:49:41.107Z,1600.00
2018-05-12T05:50:41.064Z,1600.00
2018-05-12T05:51:41.051Z,1600.00
2018-05-12T05:52:41.015Z,1620.00
2018-05-12T05:53:41.001Z,1636.00
2018-05-12T05:54:40.988Z,1652.00
2018-05-12T05:55:40.954Z,1668.00
2018-05-12T05:56:40.924Z,1672.00
2018-05-12T05:57:40.894Z,1692.00
2018-05-12T05:58:40.908Z,1668.00
2018-05-12T05:59:40.842Z,1688.00
2018-05-12T06:00:40.828Z,1684.00
2018-05-12T06:01:40.795Z,1688.00
2018-05-12T06:02:40.774Z,1692.00
2018-05-12T06:03:40.752Z,1692.00
2018-05-12T06:04:40.720Z,1680.00
2018-05-12T06:05:40.692Z,1668.00
2018-05-12T06:06:40.674Z,1660.00
2018-05-12T06:07:40.653Z,1660.00
2018-05-12T06:08:40.627Z,1668.00
2018-05-12T06:09:40.607Z,1692.00
2018-05-12T06:10:40.584Z,1724.00
2018-05-12T06:11:40.549Z,1748.00
2018-05-12T06:12:40.520Z,1760.00
2018-05-12T06:13:40.505Z,1772.00
2018-05-12T06:14:40.477Z,1792.00
2018-05-12T06:15:40.452Z,1828.00
2018-05-12T06:16:40.429Z,1856.00
2018-05-12T06:17:40.426Z,1900.00
2018-05-12T06:18:40.381Z,1948.00
2018-05-12T06:19:40.359Z,1984.00
2018-05-12T06:20:40.323Z,2000.00
2018-05-12T06:21:40.302Z,2008.00
2018-05-12T06:22:40.276Z,2036.00
2018-05-12T06:23:40.257Z,2048.00
2018-05-12T06:24:40.237Z,2052.00
2018-05-12T06:25:40.215Z,2068.00
2018-05-12T06:26:40.183Z,2076.00
2018-05-12T06:27:40.154Z,2080.00
2018-05-12T06:28:40.131Z,2092.00
2018-05-12T06:29:40.115Z,2104.00
2018-05-12T06:30:40.089Z,2132.00
2018-05-12T06:31:40.057Z,2172.00
2018-05-12T06:32:40.329Z,2200.00
2018-05-12T06:33:40.013Z,2236.00
2018-05-12T06:34:39.985Z,2260.00
2018-05-12T06:35:39.961Z,2280.00
2018-05-12T06:36:39.951Z,2304.00
2018-05-12T06:37:39.911Z,2332.00
2018-05-12T06:38:39.886Z,2380.00
2018-05-12T06:39:39.866Z,2428.00
2018-05-12T06:40:39.832Z,2468.00
2018-05-12T06:41:39.820Z,2552.00
2018-05-12T06:42:39.787Z,2660.00
2018-05-12T06:43:39.773Z,2676.00
2018-05-12T06:44:39.751Z,2684.00
2018-05-12T06:45:39.714Z,2740.00
2018-05-12T06:46:39.697Z,2864.00
2018-05-12T06:47:39.667Z,2928.00
2018-05-12T06:48:39.639Z,3008.00
2018-05-12T06:49:39.623Z,3052.00
2018-05-12T06:50:39.598Z,2996.00
2018-05-12T06:51:39.567Z,2896.00
2018-05-12T06:52:39.564Z,2812.00
2018-05-12T06:53:39.518Z,2772.00
2018-05-12T06:54:39.502Z,2704.00
2018-05-12T06:55:39.468Z,2612.00
2018-05-12T06:56:39.450Z,2524.00
2018-05-12T06:57:39.430Z,2432.00
2018-05-12T06:58:39.407Z,2372.00
2018-05-12T06:59:39.373Z,2344.00
2018-05-12T07:00:39.354Z,2348.00
2018-05-12T07:01:39.329Z,2356.00
2018-05-12T07:02:39.303Z,2376.00
2018-05-12T07:03:39.285Z,2396.00
2018-05-12T07:04:39.255Z,2424.00
2018-05-12T07:05:39.236Z,2440.00
2018-05-12T07:06:39.214Z,2460.00
2018-05-12T07:07:39.181Z,2484.00
2018-05-12T07:08:39.164Z,2520.00
2018-05-12T07:09:39.137Z,2544.00
2018-05-12T07:10:39.114Z,2576.00
2018-05-12T07:11:39.093Z,2604.00
2018-05-12T07:12:39.064Z,2632.00
2018-05-12T07:13:39.047Z,2656.00
2018-05-12T07:14:39.020Z,2696.00
2018-05-12T07:15:38.991Z,2724.00
2018-05-12T07:16:38.977Z,2756.00
2018-05-12T07:17:38.946Z,2776.00
2018-05-12T07:18:38.922Z,2784.00
2018-05-12T07:19:38.903Z,2812.00
2018-05-12T07:20:38.932Z,2824.00
2018-05-12T07:21:38.851Z,2836.00
2018-05-12T07:22:38.829Z,2844.00
2018-05-12T07:23:38.802Z,2848.00
2018-05-12T07:24:38.778Z,2848.00
2018-05-12T07:25:38.760Z,2848.00
2018-05-12T07:26:38.731Z,2840.00
2018-05-12T07:27:38.721Z,2840.00
2018-05-12T07:28:38.691Z,2808.00
2018-05-12T07:29:38.691Z,2800.00
2018-05-12T07:30:38.643Z,2784.00
2018-05-12T07:31:38.616Z,2772.00
2018-05-12T07:32:38.587Z,2792.00
2018-05-12T07:33:38.575Z,2800.00
2018-05-12T07:34:38.552Z,2792.00
2018-05-12T07:35:38.529Z,2748.00
2018-05-12T07:36:38.495Z,2720.00
2018-05-12T07:37:38.478Z,2736.00
2018-05-12T07:38:38.449Z,2760.00
2018-05-12T07:39:38.426Z,2828.00
2018-05-12T07:40:38.404Z,2928.00
2018-05-12T07:41:38.381Z,3016.00
2018-05-12T07:42:38.357Z,3084.00
2018-05-12T07:43:38.337Z,3148.00
2018-05-12T07:44:38.304Z,3184.00
2018-05-12T07:45:38.343Z,3240.00
2018-05-12T07:46:38.261Z,3284.00
2018-05-12T07:47:38.241Z,3332.00
2018-05-12T07:48:38.220Z,3404.00
2018-05-12T07:49:38.191Z,3428.00
2018-05-12T07:50:38.173Z,3400.00
2018-05-12T07:51:38.214Z,3404.00
2018-05-12T07:52:38.124Z,3436.00
2018-05-12T07:53:38.148Z,3488.00
2018-05-12T07:54:38.203Z,3564.00
2018-05-12T07:55:38.054Z,3604.00
2018-05-12T07:56:38.023Z,3596.00
2018-05-12T07:57:38.011Z,3600.00
2018-05-12T07:58:37.986Z,3600.00
2018-05-12T07:59:37.958Z,3600.00
2018-05-12T08:00:37.934Z,3552.00
2018-05-12T08:01:37.915Z,3492.00
2018-05-12T08:02:37.891Z,3460.00
2018-05-12T08:03:37.859Z,3460.00
2018-05-12T08:04:37.841Z,3456.00
2018-05-12T08:05:37.814Z,3412.00
2018-05-12T08:06:37.789Z,3376.00
2018-05-12T08:07:37.781Z,3312.00
2018-05-12T08:08:37.747Z,3180.00
2018-05-12T08:09:37.733Z,3036.00
2018-05-12T08:10:37.699Z,3108.00
2018-05-12T08:11:37.680Z,3096.00
2018-05-12T08:12:37.657Z,3100.00
2018-05-12T08:13:37.629Z,3012.00
2018-05-12T08:14:37.610Z,2956.00
2018-05-12T08:15:37.582Z,3016.00
2018-05-12T08:16:37.561Z,3080.00
2018-05-12T08:17:37.545Z,3184.00
2018-05-12T08:18:37.516Z,3216.00
2018-05-12T08:19:37.492Z,3220.00
2018-05-12T08:20:37.590Z,3208.00
2018-05-12T08:21:37.440Z,3136.00
2018-05-12T08:22:37.423Z,2984.00
2018-05-12T08:23:37.474Z,2952.00
2018-05-12T08:24:37.387Z,2876.00
2018-05-12T08:25:37.359Z,2896.00
2018-05-12T08:26:37.327Z,2896.00
2018-05-12T08:27:37.314Z,2800.00
2018-05-12T08:28:37.289Z,2844.00
2018-05-12T08:29:44.707Z,3036.00
2018-05-12T08:30:44.529Z,3304.00
2018-05-12T08:32:30.157Z,3544.00
2018-05-12T08:33:30.108Z,3560.00
2018-05-12T08:35:59.552Z,3428.00
2018-05-12T08:36:22.975Z,3424.00
2018-05-12T08:38:15.837Z,3508.00
2018-05-12T08:39:15.806Z,3468.00
2018-05-12T08:41:08.716Z,3528.00
2018-05-12T08:42:08.660Z,3532.00
2018-05-12T08:44:01.536Z,3640.00
2018-05-12T08:45:01.512Z,3816.00
2018-05-12T08:46:54.465Z,4272.00
2018-05-12T08:47:54.362Z,4744.00
2018-05-12T08:48:54.344Z,5000.00
2018-05-12T08:49:54.323Z,5364.00
2018-05-12T08:50:54.289Z,5316.00
2018-05-12T08:51:54.272Z,5036.00
2018-05-12T08:52:54.251Z,5100.00
2018-05-12T08:53:54.220Z,5468.00
2018-05-12T08:54:54.209Z,5416.00
2018-05-12T08:55:54.182Z,5004.00
2018-05-12T08:56:54.161Z,4876.00
2018-05-12T08:57:54.141Z,4908.00
2018-05-12T08:58:54.113Z,4932.00
2018-05-12T08:59:54.087Z,4824.00
2018-05-12T09:00:54.070Z,4932.00
2018-05-12T09:01:54.046Z,4968.00
2018-05-12T09:02:54.018Z,4932.00
2018-05-12T09:03:54.001Z,4784.00
2018-05-12T09:04:53.975Z,4636.00
2018-05-12T09:05:53.948Z,4464.00
2018-05-12T09:06:53.935Z,4232.00
2018-05-12T09:07:53.906Z,4004.00
2018-05-12T09:08:53.892Z,3916.00
2018-05-12T09:09:53.867Z,3856.00
2018-05-12T09:10:53.836Z,3804.00
2018-05-12T09:11:53.823Z,3764.00
2018-05-12T09:12:53.792Z,3772.00
2018-05-12T09:13:53.777Z,3936.00
2018-05-12T09:14:53.754Z,4020.00
2018-05-12T09:15:53.849Z,4064.00
2018-05-12T09:16:53.710Z,4132.00
2018-05-12T09:17:53.691Z,4100.00
2018-05-12T09:18:53.660Z,3952.00
2018-05-12T09:19:53.648Z,4048.00
2018-05-12T09:20:53.689Z,4112.00
2018-05-12T09:21:53.600Z,4152.00
2018-05-12T09:22:53.566Z,4208.00
2018-05-12T09:23:53.545Z,4256.00
2018-05-12T09:24:53.538Z,4220.00
2018-05-12T09:25:53.499Z,4244.00
2018-05-12T09:26:53.492Z,4336.00
2018-05-12T09:27:53.461Z,4536.00
2018-05-12T09:28:53.437Z,4664.00
2018-05-12T09:29:53.429Z,4740.00
2018-05-12T09:30:53.390Z,4740.00
2018-05-12T09:31:53.368Z,4668.00
2018-05-12T09:32:53.445Z,4684.00
2018-05-12T09:33:53.323Z,4740.00
2018-05-12T09:34:53.304Z,4764.00
2018-05-12T09:35:53.277Z,4824.00
2018-05-12T09:36:53.262Z,4824.00
2018-05-12T09:37:53.238Z,4852.00
2018-05-12T09:38:53.241Z,4852.00
2018-05-12T09:39:53.196Z,4812.00
2018-05-12T09:40:53.166Z,4820.00
2018-05-12T09:41:53.144Z,4792.00
2018-05-12T09:42:53.127Z,4680.00
2018-05-12T09:43:53.102Z,4604.00
2018-05-12T09:44:53.101Z,4600.00
2018-05-12T09:45:53.075Z,4592.00
2018-05-12T09:46:53.039Z,4628.00
2018-05-12T09:47:53.016Z,4644.00
2018-05-12T09:48:52.995Z,4772.00
2018-05-12T09:49:52.965Z,4840.00
2018-05-12T09:50:52.949Z,4884.00
2018-05-12T09:51:52.924Z,4876.00
2018-05-12T09:52:52.904Z,4940.00
2018-05-12T09:53:52.880Z,5076.00
2018-05-12T09:54:52.858Z,5124.00
2018-05-12T09:55:52.839Z,5184.00
2018-05-12T09:56:52.816Z,5164.00
2018-05-12T09:57:52.793Z,5188.00
2018-05-12T09:58:52.767Z,5100.00
2018-05-12T09:59:52.744Z,5112.00
2018-05-12T10:00:52.729Z,5216.00
2018-05-12T10:01:52.698Z,5240.00
2018-05-12T10:02:52.678Z,5296.00
2018-05-12T10:03:52.684Z,5248.00
2018-05-12T10:04:52.637Z,5200.00
2018-05-12T10:05:52.617Z,5168.00
2018-05-12T10:06:52.585Z,5152.00
2018-05-12T10:07:52.570Z,5140.00
2018-05-12T10:08:52.546Z,5104.00
2018-05-12T10:09:52.526Z,5108.00
2018-05-12T10:10:52.507Z,5144.00
2018-05-12T10:11:52.485Z,5176.00
2018-05-12T10:12:52.484Z,5188.00
2018-05-12T10:13:52.440Z,5264.00
2018-05-12T10:14:52.410Z,5344.00
2018-05-12T10:15:52.397Z,5392.00
2018-05-12T10:16:52.372Z,5480.00
2018-05-12T10:17:52.354Z,5548.00
2018-05-12T10:18:52.326Z,5704.00
2018-05-12T10:19:52.309Z,5884.00
2018-05-12T10:20:52.281Z,5992.00
2018-05-12T10:21:52.265Z,6108.00
2018-05-12T10:22:52.243Z,6156.00
2018-05-12T10:23:52.216Z,6172.00
2018-05-12T10:24:52.199Z,6300.00
2018-05-12T10:25:52.176Z,6384.00
2018-05-12T10:26:52.147Z,6440.00
2018-05-12T10:27:52.130Z,6352.00
2018-05-12T10:28:52.106Z,6392.00
2018-05-12T10:29:52.080Z,6428.00
2018-05-12T10:30:52.068Z,6456.00
2018-05-12T10:31:52.036Z,6528.00
2018-05-12T10:32:52.016Z,6584.00
2018-05-12T10:33:51.998Z,6616.00
2018-05-12T10:34:51.979Z,6648.00
2018-05-12T10:35:51.952Z,6668.00
2018-05-12T10:36:51.934Z,6672.00
2018-05-12T10:37:51.911Z,6800.00
2018-05-12T10:38:51.931Z,6956.00
2018-05-12T10:39:51.867Z,7064.00
2018-05-12T10:40:51.842Z,7180.00
2018-05-12T10:41:51.821Z,7208.00
2018-05-12T10:42:51.806Z,7188.00
2018-05-12T10:43:51.784Z,7180.00
2018-05-12T10:44:51.805Z,7176.00
2018-05-12T10:45:51.739Z,7184.00
2018-05-12T10:46:51.710Z,7160.00
2018-05-12T10:47:51.692Z,7060.00
2018-05-12T10:48:51.674Z,6956.00
2018-05-12T10:49:51.652Z,6732.00
2018-05-12T10:50:51.652Z,6592.00
2018-05-12T10:51:51.613Z,6492.00
2018-05-12T10:52:51.606Z,6448.00
2018-05-12T10:53:51.564Z,6340.00
2018-05-12T10:54:51.550Z,6184.00
2018-05-12T10:55:51.636Z,6184.00
2018-05-12T10:56:51.538Z,6164.00
2018-05-12T10:57:51.517Z,6120.00
2018-05-12T10:58:51.466Z,6164.00
2018-05-12T10:59:51.614Z,6228.00
2018-05-12T11:00:51.418Z,6180.00
2018-05-12T11:01:51.459Z,6100.00
2018-05-12T11:02:51.439Z,6032.00
2018-05-12T11:03:51.341Z,6004.00
2018-05-12T11:04:51.404Z,5996.00
2018-05-12T11:05:51.313Z,5932.00
2018-05-12T11:06:51.515Z,5908.00
2018-05-12T11:07:51.266Z,5808.00
2018-05-12T11:08:51.265Z,5832.00
2018-05-12T11:09:51.247Z,5908.00
2018-05-12T11:10:51.206Z,5952.00
2018-05-12T11:11:51.169Z,5948.00
2018-05-12T11:12:51.157Z,5944.00
2018-05-12T11:13:51.176Z,5960.00
2018-05-12T11:14:51.109Z,6004.00
2018-05-12T11:15:51.118Z,6080.00
2018-05-12T11:16:51.104Z,6208.00
2018-05-12T11:17:51.047Z,6324.00
2018-05-12T11:18:51.023Z,6424.00
2018-05-12T11:19:51.013Z,6372.00
2018-05-12T11:20:50.979Z,6236.00
2018-05-12T11:21:51.042Z,6260.00
2018-05-12T11:22:50.955Z,6224.00
2018-05-12T11:23:50.996Z,6244.00
2018-05-12T11:24:50.892Z,6192.00
2018-05-12T11:25:50.872Z,6236.00
2018-05-12T11:26:50.847Z,6208.00
2018-05-12T11:27:50.831Z,6100.00
2018-05-12T11:28:50.801Z,5972.00
2018-05-12T11:29:50.790Z,6072.00
2018-05-12T11:30:50.762Z,6024.00
2018-05-12T11:31:50.742Z,5948.00
2018-05-12T11:32:50.725Z,5876.00
2018-05-12T11:33:50.694Z,5836.00
2018-05-12T11:34:50.682Z,5832.00
2018-05-12T11:35:50.655Z,5884.00
2018-05-12T11:36:50.642Z,6012.00
2018-05-12T11:37:50.616Z,6084.00
2018-05-12T11:38:50.684Z,6108.00
2018-05-12T11:39:50.574Z,6044.00
2018-05-12T11:40:50.586Z,5956.00
2018-05-12T11:41:50.527Z,5848.00
2018-05-12T11:42:50.507Z,5792.00
2018-05-12T11:43:50.504Z,5724.00
2018-05-12T11:44:50.477Z,5660.00
2018-05-12T11:45:50.445Z,5620.00
2018-05-12T11:46:50.421Z,5512.00
2018-05-12T11:47:50.407Z,5488.00
2018-05-12T11:48:50.383Z,5508.00
2018-05-12T11:49:50.355Z,5504.00
2018-05-12T11:50:50.336Z,5448.00
2018-05-12T11:51:50.308Z,5420.00
2018-05-12T11:52:50.319Z,5408.00
2018-05-12T11:53:50.293Z,5592.00
2018-05-12T11:54:50.251Z,5652.00
2018-05-12T11:55:50.262Z,5676.00
2018-05-12T11:56:50.240Z,5632.00
2018-05-12T11:57:50.188Z,5680.00
2018-05-12T11:58:50.155Z,5840.00
2018-05-12T11:59:50.143Z,5916.00
2018-05-12T12:00:50.120Z,6044.00
2018-05-12T12:01:50.101Z,6176.00
2018-05-12T12:02:50.074Z,6268.00
2018-05-12T12:03:50.156Z,6408.00
2018-05-12T12:04:50.038Z,6400.00
2018-05-12T12:05:50.013Z,6348.00
2018-05-12T12:06:49.989Z,6252.00
2018-05-12T12:07:49.979Z,6224.00
2018-05-12T12:08:49.944Z,6264.00
2018-05-12T12:09:49.922Z,6312.00
2018-05-12T12:10:49.898Z,6340.00
2018-05-12T12:11:49.878Z,6316.00
2018-05-12T12:12:49.859Z,6332.00
2018-05-12T12:13:49.835Z,6400.00
2018-05-12T12:14:49.829Z,6460.00
2018-05-12T12:15:49.803Z,6496.00
2018-05-12T12:16:49.776Z,6564.00
2018-05-12T12:17:49.756Z,6624.00
2018-05-12T12:18:49.734Z,6664.00
2018-05-12T12:19:49.705Z,6612.00
2018-05-12T12:20:49.693Z,6576.00
2018-05-12T12:21:49.665Z,6412.00
2018-05-12T12:22:49.658Z,6356.00
2018-05-12T12:23:49.623Z,6336.00
2018-05-12T12:24:49.606Z,6276.00
2018-05-12T12:25:49.583Z,6524.00
2018-05-12T12:26:49.564Z,6900.00
2018-05-12T12:27:49.542Z,5556.00
2018-05-12T12:28:49.577Z,7328.00
2018-05-12T12:29:49.499Z,7304.00
2018-05-12T12:30:49.474Z,7168.00
2018-05-12T12:31:49.452Z,6996.00